Aviation Digital Data Service (ADDS)

Output produced by METARs form (0021 UTC 27 June 2017)
found at http://www.aviationweather.gov/adds/metars/
 
KMDT 262356Z 23004KT 10SM FEW080 SCT110 24/12 A2997 RMK AO2 SLP146 T02390117 10261 20239 56011
KMDT 262256Z 25007KT 10SM FEW080 FEW110 25/10 A2997 RMK AO2 SLP148 T02500100
KMDT 262156Z VRB05KT 10SM FEW085 SCT110 26/09 A2997 RMK AO2 SLP149 T02560094
KMDT 262056Z 26006KT 10SM SCT085 SCT110 25/09 A3000 RMK AO2 SLP157 T02500094 58011
KMDT 261956Z 27006KT 10SM FEW075 SCT095 26/09 A3001 RMK AO2 SLP161 T02560089
KMDT 261856Z 29006G16KT 10SM SCT060 SCT090 24/08 A3002 RMK AO2 SLP165 T02440083
KMDT 261756Z 24007KT 10SM BKN060 24/09 A3003 RMK A02 SLP168 T02440089 10250 20189 50001
KMDT 261656Z 33004006KT 10SM BKN050 24/08 A3004 RMK A02 SLP173 T02440083
KMDT 261456Z VRB05KT 10SM SCT025 24/09 A3007 RMK A02 SLP179 T02440094 51008
KMDT 261356Z 30008KT 10SM CLR 23/11 A3007 RMK A02 SLP180 T02280111
KMDT 261256Z 30008KT 10SM CLR 21/11 A3007 RMK A02 SLP181 T02110111
KMDT 261156Z 31008KT 10SM CLR 19/12 A3006 RMK A02 SLP178 T01940117 10200 20156 53003
KMDT 261056Z 32005KT 10SM CLR 18/12 A3006 RMK A02 SLP177 T01830122
KMDT 260856Z 32005KT 10SM CLR 16/12 A3004 RMK AO2 SLP170 T01610117 53003
KMDT 260656Z 34004KT 10SM FEW080 SCT095 19/11 A3003 RMK AO2 SLP169 T01940106
KMDT 260556Z 32008KT 10SM BKN100 19/10 A3003 RMK AO2 SLP167 T01940100 10256 20194 53004
KMDT 260456Z 32006KT 10SM SCT090 20/10 A3002 RMK AO2 SLP164 T02000100 402830189
KMDT 260356Z 28007KT 10SM FEW090 SCT120 22/09 A3002 RMK AO2 SLP163 T02220094
KMDT 260256Z 27008KT 10SM BKN090 23/09 A3001 RMK AO2 SLP161 T02330094 51010
KMDT 260156Z 25010KT 10SM FEW070 24/09 A3001 RMK AO2 SLP160 T02390094
KMDT 260056Z 25009KT 10SM FEW070 FEW100 24/11 A2999 RMK AO2 SLP155 T02440106
KMDT 252356Z 26009KT 10SM FEW075 26/10 A2998 RMK AO2 SLP152 T02560100 10283 20256 53013
KMDT 252256Z 28016G24KT 10SM FEW070 FEW100 27/09 A2996 RMK AO2 SLP145 T02670089
KMDT 252156Z 27008KT 10SM SCT075 BKN100 26/13 A2994 RMK AO2 SLP139 T02610128
KMDT 252056Z 29010KT 10SM SCT080 BKN100 27/12 A2994 RMK AO2 SLP139 T02720117 56012
KMDT 251956Z 29007KT 10SM SCT080 BKN100 27/12 A2995 RMK AO2 SLP142 T02670122
KMDT 251856Z 30007KT 10SM BKN075 BKN100 BKN200 27/13 A2996 RMK AO2 SLP143 T02670133
KMDT 251756Z 31009KT 10SM SCT070 SCT100 SCT200 27/12 A2998 RMK AO2 SLP149 T02720117 10278 20211 58012
KMDT 251656Z 31009KT 10SM SCT060 SCT075 SCT150 27/13 A2999 RMK AO2 SLP154 T02720133
KMDT 251556Z 25009KT 220V280 10SM SCT055 BKN250 27/15 A3000 RMK AO2 SLP157 T02720150
KMDT 251456Z 00000KT 10SM FEW045 FEW100 SCT250 26/14 A3001 RMK AO2 SLP161 T02560144 51001
KMDT 251356Z 30005KT 10SM FEW100 FEW250 24/15 A3001 RMK AO2 SLP160 T02440150
KMDT 251256Z 31008KT 10SM BKN110 BKN250 23/16 A3001 RMK AO2 SLP161 T02280161